Maersk Iowa — KABL — position and weather

sailwx.info

Track history (hours):
 
Tides and Currents Weather Stations Pressure Air Temp Water Temp Dewpoint Dewpoint Depression Visibility Wind Speed Wind Dir Waves Ship Positions

Maersk Iowa

Owner: FARRELL LINES INC, Norfolk, VA. More information available from US FCC via Universal Licensing System and Coast Guard Vessel Documentation Center.

Last reported at 2016-May-05 01:33 UTC. Time now 2016-May-05 19:53 UTC.
Position N 25°34' W 080°02'.

Length 292 m; draft 11 m.

Type: Ship (hazmat cat A). MMSI: 367606000.

Date/timePositionNaut miles runAvg speedWind from/ knotsBaromVisibWave heightAir tempDewpointWater temp
2016-May-05 01:33N 25°34' W 080°02'1312.7
2016-May-05 00:33N 25°46' W 080°07'1 0.0
2016-May-04 10:31N 25°46' W 080°08'7 7.5
2016-May-04 09:33N 25°49' W 080°01'1313.0
2016-May-04 08:33N 26°02' W 080°01'1413.5
2016-May-04 07:33N 26°16' W 080°00'1312.8
2016-May-04 06:33N 26°29' W 079°60'1312.6
2016-May-04 05:33N 26°41' W 079°59'1212.2
2016-May-04 04:33N 26°53' W 079°59'1110.9
2016-May-04 03:33N 27°04' W 079°59'4412.3
2016-May-04 00:00N 27°48' W 080°00'27911.8 130 / 121012.510.8 1.027.022.627.0
2016-May-03 00:22N 32°26' W 079°34'322 7.0
2016-May-01 02:33N 36°52' W 075°53'9 8.6
2016-May-01 01:33N 36°57' W 076°02'1512.0
2016-May-01 00:19N 36°57' W 076°20'4 5.6
2016-Apr-30 23:34N 36°53' W 076°21'0 0.1
2016-Apr-30 22:34N 36°53' W 076°21'0 0.0
2016-Apr-30 21:30N 36°53' W 076°21'0 0.0
2016-Apr-30 20:24N 36°53' W 076°21'0 0.0
2016-Apr-30 19:24N 36°53' W 076°21'0 0.0
2016-Apr-30 18:33N 36°53' W 076°21'0 0.0
2016-Apr-30 17:33N 36°53' W 076°21'0 0.0
2016-Apr-30 16:33N 36°53' W 076°21'0 0.0
2016-Apr-30 15:33N 36°53' W 076°21'0 0.0
2016-Apr-30 14:30N 36°53' W 076°21'0 0.0
2016-Apr-30 13:30N 36°53' W 076°21'0 0.0
2016-Apr-30 12:21N 36°53' W 076°21'0 0.0
2016-Apr-30 11:12N 36°53' W 076°21'0 0.0
2016-Apr-30 10:04N 36°53' W 076°21'1 1.1
2016-Apr-30 09:33N 36°53' W 076°20'6 6.4
2016-Apr-30 08:33N 36°59' W 076°19'1111.3
2016-Apr-30 07:34N 36°58' W 076°05'9 9.4
2016-Apr-30 06:33N 36°55' W 075°54'21617.2
2016-Apr-29 18:00N 36°54' W 071°24'45218.8 040 / 251012.0 5.4 1.021.017.822.0
2016-Apr-28 18:00N 38°54' W 062°12'21618.0 030 / 141016.0 5.4 1.020.010.924.0
2016-Apr-28 06:00N 39°48' W 057°42'18115.1 220 / 321011.0 5.4 2.018.014.620.0
2016-Apr-27 18:00N 40°36' W 053°54'20617.2 200 / 201016.0 5.4 1.014.0 8.0 9.0
2016-Apr-27 06:00N 41°30' W 049°30'65218.1 210 / 121022.0 5.4 1.0 8.0 0.5 8.0
2016-Apr-25 18:00N 44°24' W 035°12'20717.3 040 / 141002.0 5.4 2.026.018.215.0
2016-Apr-25 06:00N 45°18' W 030°30'   110 / 311008.2 5.4 14.513.614.5
Track history (hours):
 
Tides and Currents Weather Stations Pressure Air Temp Water Temp Dewpoint Dewpoint Depression Visibility Wind Speed Wind Dir Waves Ship Positions

Maersk Iowa

Owner: FARRELL LINES INC, Norfolk, VA. More information available from US FCC via Universal Licensing System and Coast Guard Vessel Documentation Center.

Last reported at 2016-May-05 01:33 UTC. Time now 2016-May-05 19:53 UTC.
Position N 25°34' W 080°02'.

Length 292 m; draft 11 m.

Type: Ship (hazmat cat A). MMSI: 367606000.

Date/timePositionNaut miles runAvg speedWind from/ knotsBaromVisibWave heightAir tempDewpointWater temp
2016-May-05 01:33N 25°34' W 080°02'1312.7
2016-May-05 00:33N 25°46' W 080°07'1 0.0
2016-May-04 10:31N 25°46' W 080°08'7 7.5
2016-May-04 09:33N 25°49' W 080°01'1313.0
2016-May-04 08:33N 26°02' W 080°01'1413.5
2016-May-04 07:33N 26°16' W 080°00'1312.8
2016-May-04 06:33N 26°29' W 079°60'1312.6
2016-May-04 05:33N 26°41' W 079°59'1212.2
2016-May-04 04:33N 26°53' W 079°59'1110.9
2016-May-04 03:33N 27°04' W 079°59'4412.3
2016-May-04 00:00N 27°48' W 080°00'27911.8 130 / 121012.510.8 1.027.022.627.0
2016-May-03 00:22N 32°26' W 079°34'322 7.0
2016-May-01 02:33N 36°52' W 075°53'9 8.6
2016-May-01 01:33N 36°57' W 076°02'1512.0
2016-May-01 00:19N 36°57' W 076°20'4 5.6
2016-Apr-30 23:34N 36°53' W 076°21'0 0.1
2016-Apr-30 22:34N 36°53' W 076°21'0 0.0
2016-Apr-30 21:30N 36°53' W 076°21'0 0.0
2016-Apr-30 20:24N 36°53' W 076°21'0 0.0
2016-Apr-30 19:24N 36°53' W 076°21'0 0.0
2016-Apr-30 18:33N 36°53' W 076°21'0 0.0
2016-Apr-30 17:33N 36°53' W 076°21'0 0.0
2016-Apr-30 16:33N 36°53' W 076°21'0 0.0
2016-Apr-30 15:33N 36°53' W 076°21'0 0.0
2016-Apr-30 14:30N 36°53' W 076°21'0 0.0
2016-Apr-30 13:30N 36°53' W 076°21'0 0.0
2016-Apr-30 12:21N 36°53' W 076°21'0 0.0
2016-Apr-30 11:12N 36°53' W 076°21'0 0.0
2016-Apr-30 10:04N 36°53' W 076°21'1 1.1
2016-Apr-30 09:33N 36°53' W 076°20'6 6.4
2016-Apr-30 08:33N 36°59' W 076°19'1111.3
2016-Apr-30 07:34N 36°58' W 076°05'9 9.4
2016-Apr-30 06:33N 36°55' W 075°54'21617.2
2016-Apr-29 18:00N 36°54' W 071°24'45218.8 040 / 251012.0 5.4 1.021.017.822.0
2016-Apr-28 18:00N 38°54' W 062°12'21618.0 030 / 141016.0 5.4 1.020.010.924.0
2016-Apr-28 06:00N 39°48' W 057°42'18115.1 220 / 321011.0 5.4 2.018.014.620.0
2016-Apr-27 18:00N 40°36' W 053°54'20617.2 200 / 201016.0 5.4 1.014.0 8.0 9.0
2016-Apr-27 06:00N 41°30' W 049°30'65218.1 210 / 121022.0 5.4 1.0 8.0 0.5 8.0
2016-Apr-25 18:00N 44°24' W 035°12'20717.3 040 / 141002.0 5.4 2.026.018.215.0
2016-Apr-25 06:00N 45°18' W 030°30'   110 / 311008.2 5.4 14.513.614.5

Dump ship's entire track history